sensor_id;sensor_type;location;lat;lon;timestamp;P1;durP1;ratioP1;P2;durP2;ratioP2
14599;SDS011;7386;45.586;12.854;2022-12-24T00:01:21;143.67;;;94.50;;
14599;SDS011;7386;45.586;12.854;2022-12-24T00:03:51;140.40;;;92.73;;
14599;SDS011;7386;45.586;12.854;2022-12-24T00:06:21;142.03;;;94.57;;
14599;SDS011;7386;45.586;12.854;2022-12-24T00:08:50;138.30;;;90.37;;
14599;SDS011;7386;45.586;12.854;2022-12-24T00:11:19;137.17;;;91.77;;
14599;SDS011;7386;45.586;12.854;2022-12-24T00:13:48;137.53;;;90.60;;
14599;SDS011;7386;45.586;12.854;2022-12-24T00:16:16;139.07;;;90.67;;
14599;SDS011;7386;45.586;12.854;2022-12-24T00:18:45;134.90;;;88.87;;
14599;SDS011;7386;45.586;12.854;2022-12-24T00:21:15;140.57;;;89.27;;
14599;SDS011;7386;45.586;12.854;2022-12-24T00:23:43;146.20;;;89.37;;
14599;SDS011;7386;45.586;12.854;2022-12-24T00:26:12;142.43;;;91.63;;
14599;SDS011;7386;45.586;12.854;2022-12-24T00:28:40;148.97;;;92.77;;
14599;SDS011;7386;45.586;12.854;2022-12-24T00:31:09;146.00;;;94.10;;
14599;SDS011;7386;45.586;12.854;2022-12-24T00:33:39;150.23;;;95.83;;
14599;SDS011;7386;45.586;12.854;2022-12-24T00:36:07;144.60;;;92.27;;
14599;SDS011;7386;45.586;12.854;2022-12-24T00:38:37;148.70;;;92.13;;
14599;SDS011;7386;45.586;12.854;2022-12-24T00:41:06;143.23;;;92.47;;
14599;SDS011;7386;45.586;12.854;2022-12-24T00:43:51;145.30;;;92.90;;
14599;SDS011;7386;45.586;12.854;2022-12-24T00:46:20;140.07;;;89.20;;
14599;SDS011;7386;45.586;12.854;2022-12-24T00:48:48;138.10;;;91.00;;
14599;SDS011;7386;45.586;12.854;2022-12-24T00:51:17;139.80;;;91.63;;
14599;SDS011;7386;45.586;12.854;2022-12-24T00:53:47;144.47;;;89.83;;
14599;SDS011;7386;45.586;12.854;2022-12-24T00:56:16;143.67;;;92.03;;
14599;SDS011;7386;45.586;12.854;2022-12-24T00:58:45;147.60;;;92.27;;
14599;SDS011;7386;45.586;12.854;2022-12-24T01:01:13;135.50;;;89.20;;
14599;SDS011;7386;45.586;12.854;2022-12-24T01:03:42;135.47;;;89.23;;
14599;SDS011;7386;45.586;12.854;2022-12-24T01:06:12;136.87;;;88.13;;
14599;SDS011;7386;45.586;12.854;2022-12-24T01:08:40;135.03;;;88.27;;
14599;SDS011;7386;45.586;12.854;2022-12-24T01:11:10;137.87;;;90.40;;
14599;SDS011;7386;45.586;12.854;2022-12-24T01:13:39;146.53;;;92.20;;
14599;SDS011;7386;45.586;12.854;2022-12-24T01:16:12;144.63;;;95.57;;
14599;SDS011;7386;45.586;12.854;2022-12-24T01:18:41;145.40;;;94.50;;
14599;SDS011;7386;45.586;12.854;2022-12-24T01:21:09;154.17;;;98.37;;
14599;SDS011;7386;45.586;12.854;2022-12-24T01:23:38;151.53;;;96.57;;
14599;SDS011;7386;45.586;12.854;2022-12-24T01:26:06;140.33;;;93.23;;
14599;SDS011;7386;45.586;12.854;2022-12-24T01:28:36;144.93;;;94.77;;
14599;SDS011;7386;45.586;12.854;2022-12-24T01:31:08;148.13;;;96.10;;
14599;SDS011;7386;45.586;12.854;2022-12-24T01:33:37;156.27;;;95.23;;
14599;SDS011;7386;45.586;12.854;2022-12-24T01:36:06;143.30;;;91.30;;
14599;SDS011;7386;45.586;12.854;2022-12-24T01:38:34;145.33;;;95.70;;
14599;SDS011;7386;45.586;12.854;2022-12-24T01:41:03;150.03;;;95.80;;
14599;SDS011;7386;45.586;12.854;2022-12-24T01:46:42;150.03;;;93.97;;
14599;SDS011;7386;45.586;12.854;2022-12-24T01:49:11;149.63;;;98.27;;
14599;SDS011;7386;45.586;12.854;2022-12-24T01:51:41;150.30;;;94.23;;
14599;SDS011;7386;45.586;12.854;2022-12-24T01:54:12;143.93;;;94.00;;
14599;SDS011;7386;45.586;12.854;2022-12-24T01:56:42;143.13;;;93.07;;
14599;SDS011;7386;45.586;12.854;2022-12-24T01:59:12;140.70;;;92.00;;
14599;SDS011;7386;45.586;12.854;2022-12-24T02:01:43;155.23;;;96.50;;
14599;SDS011;7386;45.586;12.854;2022-12-24T02:04:15;145.53;;;93.97;;
14599;SDS011;7386;45.586;12.854;2022-12-24T02:06:44;139.23;;;92.50;;
14599;SDS011;7386;45.586;12.854;2022-12-24T02:09:13;141.10;;;90.90;;
14599;SDS011;7386;45.586;12.854;2022-12-24T02:11:42;139.67;;;90.20;;
14599;SDS011;7386;45.586;12.854;2022-12-24T02:14:11;149.70;;;91.60;;
14599;SDS011;7386;45.586;12.854;2022-12-24T02:16:43;144.27;;;90.63;;
14599;SDS011;7386;45.586;12.854;2022-12-24T02:19:25;139.30;;;91.60;;
14599;SDS011;7386;45.586;12.854;2022-12-24T02:22:00;147.40;;;90.87;;
14599;SDS011;7386;45.586;12.854;2022-12-24T02:27:16;140.07;;;89.53;;
14599;SDS011;7386;45.586;12.854;2022-12-24T02:30:00;142.03;;;90.07;;
14599;SDS011;7386;45.586;12.854;2022-12-24T02:32:32;143.37;;;91.30;;
14599;SDS011;7386;45.586;12.854;2022-12-24T02:35:02;146.47;;;92.97;;
14599;SDS011;7386;45.586;12.854;2022-12-24T02:37:32;142.20;;;91.43;;
14599;SDS011;7386;45.586;12.854;2022-12-24T02:40:02;142.20;;;91.03;;
14599;SDS011;7386;45.586;12.854;2022-12-24T02:42:42;143.87;;;90.63;;
14599;SDS011;7386;45.586;12.854;2022-12-24T02:45:13;142.30;;;91.73;;
14599;SDS011;7386;45.586;12.854;2022-12-24T02:47:42;142.77;;;92.07;;
14599;SDS011;7386;45.586;12.854;2022-12-24T02:50:13;140.53;;;90.47;;
14599;SDS011;7386;45.586;12.854;2022-12-24T02:52:42;137.40;;;91.50;;
14599;SDS011;7386;45.586;12.854;2022-12-24T02:55:11;131.70;;;88.27;;
14599;SDS011;7386;45.586;12.854;2022-12-24T02:57:43;143.33;;;94.30;;
14599;SDS011;7386;45.586;12.854;2022-12-24T03:00:17;138.97;;;91.90;;
14599;SDS011;7386;45.586;12.854;2022-12-24T03:02:49;139.53;;;91.63;;
14599;SDS011;7386;45.586;12.854;2022-12-24T03:05:22;144.10;;;94.40;;
14599;SDS011;7386;45.586;12.854;2022-12-24T03:07:56;136.60;;;92.37;;
14599;SDS011;7386;45.586;12.854;2022-12-24T03:10:26;145.93;;;97.13;;
14599;SDS011;7386;45.586;12.854;2022-12-24T03:12:59;144.97;;;95.23;;
14599;SDS011;7386;45.586;12.854;2022-12-24T03:15:31;137.97;;;93.57;;
14599;SDS011;7386;45.586;12.854;2022-12-24T03:18:00;140.87;;;93.80;;
14599;SDS011;7386;45.586;12.854;2022-12-24T03:20:30;141.27;;;95.67;;
14599;SDS011;7386;45.586;12.854;2022-12-24T03:23:00;143.07;;;94.63;;
14599;SDS011;7386;45.586;12.854;2022-12-24T03:25:29;143.33;;;95.10;;
14599;SDS011;7386;45.586;12.854;2022-12-24T03:28:00;139.00;;;93.67;;
14599;SDS011;7386;45.586;12.854;2022-12-24T03:30:30;137.83;;;93.20;;
14599;SDS011;7386;45.586;12.854;2022-12-24T03:32:59;142.17;;;94.43;;
14599;SDS011;7386;45.586;12.854;2022-12-24T03:35:28;146.83;;;97.23;;
14599;SDS011;7386;45.586;12.854;2022-12-24T03:37:56;144.60;;;97.10;;
14599;SDS011;7386;45.586;12.854;2022-12-24T03:40:25;143.90;;;97.10;;
14599;SDS011;7386;45.586;12.854;2022-12-24T03:42:53;148.43;;;101.27;;
14599;SDS011;7386;45.586;12.854;2022-12-24T03:45:21;149.00;;;99.23;;
14599;SDS011;7386;45.586;12.854;2022-12-24T03:47:51;151.47;;;99.47;;
14599;SDS011;7386;45.586;12.854;2022-12-24T03:50:20;147.40;;;98.87;;
14599;SDS011;7386;45.586;12.854;2022-12-24T03:52:48;152.13;;;101.27;;
14599;SDS011;7386;45.586;12.854;2022-12-24T03:55:17;154.53;;;102.97;;
14599;SDS011;7386;45.586;12.854;2022-12-24T03:57:45;148.93;;;98.13;;
14599;SDS011;7386;45.586;12.854;2022-12-24T04:00:14;149.07;;;99.60;;
14599;SDS011;7386;45.586;12.854;2022-12-24T04:02:43;156.93;;;102.70;;
14599;SDS011;7386;45.586;12.854;2022-12-24T04:05:14;163.80;;;110.40;;
14599;SDS011;7386;45.586;12.854;2022-12-24T04:07:43;153.00;;;103.03;;
14599;SDS011;7386;45.586;12.854;2022-12-24T04:10:12;152.60;;;105.17;;
14599;SDS011;7386;45.586;12.854;2022-12-24T04:12:40;151.70;;;101.53;;
14599;SDS011;7386;45.586;12.854;2022-12-24T04:15:09;155.27;;;101.30;;
14599;SDS011;7386;45.586;12.854;2022-12-24T04:17:37;151.97;;;104.07;;
14599;SDS011;7386;45.586;12.854;2022-12-24T04:20:06;154.40;;;105.00;;
14599;SDS011;7386;45.586;12.854;2022-12-24T04:22:36;149.60;;;103.17;;
14599;SDS011;7386;45.586;12.854;2022-12-24T04:25:05;151.07;;;104.83;;
14599;SDS011;7386;45.586;12.854;2022-12-24T04:27:34;147.30;;;100.67;;
14599;SDS011;7386;45.586;12.854;2022-12-24T04:30:02;141.60;;;99.47;;
14599;SDS011;7386;45.586;12.854;2022-12-24T04:32:31;147.10;;;102.70;;
14599;SDS011;7386;45.586;12.854;2022-12-24T04:34:59;175.07;;;105.47;;
14599;SDS011;7386;45.586;12.854;2022-12-24T04:37:28;182.73;;;108.17;;
14599;SDS011;7386;45.586;12.854;2022-12-24T04:39:58;165.70;;;108.73;;
14599;SDS011;7386;45.586;12.854;2022-12-24T04:42:26;167.57;;;108.53;;
14599;SDS011;7386;45.586;12.854;2022-12-24T04:44:54;161.93;;;104.47;;
14599;SDS011;7386;45.586;12.854;2022-12-24T04:47:23;169.37;;;105.67;;
14599;SDS011;7386;45.586;12.854;2022-12-24T04:49:52;166.13;;;103.60;;
14599;SDS011;7386;45.586;12.854;2022-12-24T04:52:20;160.13;;;102.17;;
14599;SDS011;7386;45.586;12.854;2022-12-24T04:54:49;162.10;;;101.47;;
14599;SDS011;7386;45.586;12.854;2022-12-24T04:57:18;170.33;;;104.43;;
14599;SDS011;7386;45.586;12.854;2022-12-24T04:59:47;166.70;;;102.93;;
14599;SDS011;7386;45.586;12.854;2022-12-24T05:02:16;152.47;;;100.90;;
14599;SDS011;7386;45.586;12.854;2022-12-24T05:04:44;158.60;;;103.87;;
14599;SDS011;7386;45.586;12.854;2022-12-24T05:07:13;148.97;;;99.67;;
14599;SDS011;7386;45.586;12.854;2022-12-24T05:09:41;152.30;;;100.27;;
14599;SDS011;7386;45.586;12.854;2022-12-24T05:12:10;152.13;;;101.07;;
14599;SDS011;7386;45.586;12.854;2022-12-24T05:14:40;148.60;;;100.13;;
14599;SDS011;7386;45.586;12.854;2022-12-24T05:17:08;152.40;;;101.13;;
14599;SDS011;7386;45.586;12.854;2022-12-24T05:19:36;142.13;;;96.93;;
14599;SDS011;7386;45.586;12.854;2022-12-24T05:22:05;157.47;;;100.20;;
14599;SDS011;7386;45.586;12.854;2022-12-24T05:24:51;153.60;;;98.60;;
14599;SDS011;7386;45.586;12.854;2022-12-24T05:27:45;155.00;;;101.03;;
14599;SDS011;7386;45.586;12.854;2022-12-24T05:30:18;153.63;;;103.70;;
14599;SDS011;7386;45.586;12.854;2022-12-24T05:32:46;151.13;;;100.60;;
14599;SDS011;7386;45.586;12.854;2022-12-24T05:35:15;155.47;;;102.27;;
14599;SDS011;7386;45.586;12.854;2022-12-24T05:37:43;154.50;;;102.93;;
14599;SDS011;7386;45.586;12.854;2022-12-24T05:40:12;166.73;;;104.10;;
14599;SDS011;7386;45.586;12.854;2022-12-24T05:42:40;164.67;;;102.87;;
14599;SDS011;7386;45.586;12.854;2022-12-24T05:45:08;168.13;;;105.80;;
14599;SDS011;7386;45.586;12.854;2022-12-24T05:47:38;175.80;;;105.93;;
14599;SDS011;7386;45.586;12.854;2022-12-24T05:50:09;176.80;;;109.13;;
14599;SDS011;7386;45.586;12.854;2022-12-24T05:52:37;169.43;;;104.33;;
14599;SDS011;7386;45.586;12.854;2022-12-24T05:55:06;163.63;;;104.80;;
14599;SDS011;7386;45.586;12.854;2022-12-24T05:57:35;163.77;;;105.87;;
14599;SDS011;7386;45.586;12.854;2022-12-24T06:00:04;157.47;;;101.63;;
14599;SDS011;7386;45.586;12.854;2022-12-24T06:02:33;163.53;;;105.43;;
14599;SDS011;7386;45.586;12.854;2022-12-24T06:05:03;161.20;;;103.13;;
14599;SDS011;7386;45.586;12.854;2022-12-24T06:07:31;174.47;;;103.20;;
14599;SDS011;7386;45.586;12.854;2022-12-24T06:10:00;171.67;;;102.57;;
14599;SDS011;7386;45.586;12.854;2022-12-24T06:12:28;181.40;;;106.57;;
14599;SDS011;7386;45.586;12.854;2022-12-24T06:14:57;177.93;;;102.87;;
14599;SDS011;7386;45.586;12.854;2022-12-24T06:17:25;165.70;;;102.10;;
14599;SDS011;7386;45.586;12.854;2022-12-24T06:19:54;167.40;;;101.53;;
14599;SDS011;7386;45.586;12.854;2022-12-24T06:22:23;163.03;;;100.37;;
14599;SDS011;7386;45.586;12.854;2022-12-24T06:24:52;163.57;;;101.17;;
14599;SDS011;7386;45.586;12.854;2022-12-24T06:27:20;162.63;;;95.80;;
14599;SDS011;7386;45.586;12.854;2022-12-24T06:29:49;165.37;;;97.23;;
14599;SDS011;7386;45.586;12.854;2022-12-24T06:32:17;115.30;;;70.70;;
14599;SDS011;7386;45.586;12.854;2022-12-24T06:34:47;118.30;;;75.10;;
14599;SDS011;7386;45.586;12.854;2022-12-24T06:37:15;99.53;;;63.77;;
14599;SDS011;7386;45.586;12.854;2022-12-24T06:39:46;123.17;;;76.77;;
14599;SDS011;7386;45.586;12.854;2022-12-24T06:42:15;131.23;;;81.03;;
14599;SDS011;7386;45.586;12.854;2022-12-24T06:44:43;112.20;;;69.07;;
14599;SDS011;7386;45.586;12.854;2022-12-24T06:47:11;107.10;;;69.57;;
14599;SDS011;7386;45.586;12.854;2022-12-24T06:49:40;92.73;;;58.87;;
14599;SDS011;7386;45.586;12.854;2022-12-24T06:52:08;108.40;;;69.23;;
14599;SDS011;7386;45.586;12.854;2022-12-24T06:54:37;98.70;;;61.80;;
14599;SDS011;7386;45.586;12.854;2022-12-24T06:57:06;86.20;;;58.80;;
14599;SDS011;7386;45.586;12.854;2022-12-24T06:59:35;83.23;;;55.77;;
14599;SDS011;7386;45.586;12.854;2022-12-24T07:02:03;89.57;;;59.00;;
14599;SDS011;7386;45.586;12.854;2022-12-24T07:04:32;80.77;;;54.93;;
14599;SDS011;7386;45.586;12.854;2022-12-24T07:07:00;80.10;;;54.70;;
14599;SDS011;7386;45.586;12.854;2022-12-24T07:09:30;105.43;;;67.53;;
14599;SDS011;7386;45.586;12.854;2022-12-24T07:11:58;82.60;;;56.27;;
14599;SDS011;7386;45.586;12.854;2022-12-24T07:14:28;80.53;;;53.37;;
14599;SDS011;7386;45.586;12.854;2022-12-24T07:16:56;78.93;;;51.50;;
14599;SDS011;7386;45.586;12.854;2022-12-24T07:19:25;81.23;;;51.63;;
14599;SDS011;7386;45.586;12.854;2022-12-24T07:21:53;76.80;;;50.63;;
14599;SDS011;7386;45.586;12.854;2022-12-24T07:24:22;70.87;;;47.53;;
14599;SDS011;7386;45.586;12.854;2022-12-24T07:26:50;80.33;;;52.47;;
14599;SDS011;7386;45.586;12.854;2022-12-24T07:29:19;78.97;;;52.20;;
14599;SDS011;7386;45.586;12.854;2022-12-24T07:31:49;82.17;;;51.90;;
14599;SDS011;7386;45.586;12.854;2022-12-24T07:34:17;75.37;;;50.57;;
14599;SDS011;7386;45.586;12.854;2022-12-24T07:36:46;71.27;;;49.80;;
14599;SDS011;7386;45.586;12.854;2022-12-24T07:39:14;70.07;;;48.53;;
14599;SDS011;7386;45.586;12.854;2022-12-24T07:41:43;74.43;;;49.33;;
14599;SDS011;7386;45.586;12.854;2022-12-24T07:44:11;71.20;;;48.63;;
14599;SDS011;7386;45.586;12.854;2022-12-24T07:46:40;69.60;;;47.07;;
14599;SDS011;7386;45.586;12.854;2022-12-24T07:49:10;65.17;;;45.30;;
14599;SDS011;7386;45.586;12.854;2022-12-24T07:51:38;76.77;;;51.07;;
14599;SDS011;7386;45.586;12.854;2022-12-24T07:54:07;99.90;;;64.30;;
14599;SDS011;7386;45.586;12.854;2022-12-24T07:56:35;89.60;;;59.33;;
14599;SDS011;7386;45.586;12.854;2022-12-24T07:59:04;76.43;;;52.40;;
14599;SDS011;7386;45.586;12.854;2022-12-24T08:01:32;77.37;;;52.73;;
14599;SDS011;7386;45.586;12.854;2022-12-24T08:04:01;76.53;;;50.87;;
14599;SDS011;7386;45.586;12.854;2022-12-24T08:06:31;68.03;;;48.47;;
14599;SDS011;7386;45.586;12.854;2022-12-24T08:08:59;74.50;;;53.43;;
14599;SDS011;7386;45.586;12.854;2022-12-24T08:11:28;71.30;;;49.90;;
14599;SDS011;7386;45.586;12.854;2022-12-24T08:13:56;71.47;;;49.77;;
14599;SDS011;7386;45.586;12.854;2022-12-24T08:16:24;73.97;;;52.53;;
14599;SDS011;7386;45.586;12.854;2022-12-24T08:18:53;68.33;;;47.67;;
14599;SDS011;7386;45.586;12.854;2022-12-24T08:21:21;67.80;;;45.97;;
14599;SDS011;7386;45.586;12.854;2022-12-24T08:23:51;65.33;;;47.47;;
14599;SDS011;7386;45.586;12.854;2022-12-24T08:26:20;61.20;;;44.10;;
14599;SDS011;7386;45.586;12.854;2022-12-24T08:28:48;89.47;;;60.23;;
14599;SDS011;7386;45.586;12.854;2022-12-24T08:31:16;75.80;;;53.33;;
14599;SDS011;7386;45.586;12.854;2022-12-24T08:33:45;71.47;;;48.27;;
14599;SDS011;7386;45.586;12.854;2022-12-24T08:36:13;69.93;;;49.93;;
14599;SDS011;7386;45.586;12.854;2022-12-24T08:38:42;69.37;;;47.30;;
14599;SDS011;7386;45.586;12.854;2022-12-24T08:41:11;63.70;;;45.30;;
14599;SDS011;7386;45.586;12.854;2022-12-24T08:43:40;62.13;;;45.37;;
14599;SDS011;7386;45.586;12.854;2022-12-24T08:46:08;64.60;;;45.97;;
14599;SDS011;7386;45.586;12.854;2022-12-24T08:48:37;73.90;;;50.43;;
14599;SDS011;7386;45.586;12.854;2022-12-24T08:51:06;82.50;;;57.13;;
14599;SDS011;7386;45.586;12.854;2022-12-24T08:53:35;72.47;;;50.03;;
14599;SDS011;7386;45.586;12.854;2022-12-24T08:56:04;88.80;;;60.30;;
14599;SDS011;7386;45.586;12.854;2022-12-24T08:58:34;83.03;;;57.80;;
14599;SDS011;7386;45.586;12.854;2022-12-24T09:01:08;77.90;;;53.50;;
14599;SDS011;7386;45.586;12.854;2022-12-24T09:03:37;76.53;;;53.97;;
14599;SDS011;7386;45.586;12.854;2022-12-24T09:06:06;85.97;;;56.93;;
14599;SDS011;7386;45.586;12.854;2022-12-24T09:08:35;83.27;;;58.17;;
14599;SDS011;7386;45.586;12.854;2022-12-24T09:11:04;83.70;;;56.47;;
14599;SDS011;7386;45.586;12.854;2022-12-24T09:13:34;81.73;;;55.70;;
14599;SDS011;7386;45.586;12.854;2022-12-24T09:16:02;81.93;;;55.90;;
14599;SDS011;7386;45.586;12.854;2022-12-24T09:18:31;87.80;;;59.30;;
14599;SDS011;7386;45.586;12.854;2022-12-24T09:21:00;89.30;;;60.37;;
14599;SDS011;7386;45.586;12.854;2022-12-24T09:23:29;95.40;;;62.87;;
14599;SDS011;7386;45.586;12.854;2022-12-24T09:25:58;98.83;;;70.60;;
14599;SDS011;7386;45.586;12.854;2022-12-24T09:28:27;98.90;;;66.77;;
14599;SDS011;7386;45.586;12.854;2022-12-24T09:30:57;104.17;;;69.70;;
14599;SDS011;7386;45.586;12.854;2022-12-24T09:33:26;106.73;;;72.50;;
14599;SDS011;7386;45.586;12.854;2022-12-24T09:35:55;103.50;;;70.87;;
14599;SDS011;7386;45.586;12.854;2022-12-24T09:38:24;114.00;;;73.03;;
14599;SDS011;7386;45.586;12.854;2022-12-24T09:40:52;111.73;;;76.13;;
14599;SDS011;7386;45.586;12.854;2022-12-24T09:43:22;112.00;;;76.80;;
14599;SDS011;7386;45.586;12.854;2022-12-24T09:45:54;110.90;;;75.37;;
14599;SDS011;7386;45.586;12.854;2022-12-24T09:48:26;114.40;;;76.73;;
14599;SDS011;7386;45.586;12.854;2022-12-24T09:50:57;118.90;;;79.47;;
14599;SDS011;7386;45.586;12.854;2022-12-24T09:53:27;118.97;;;81.40;;
14599;SDS011;7386;45.586;12.854;2022-12-24T09:55:57;119.07;;;80.20;;
14599;SDS011;7386;45.586;12.854;2022-12-24T09:58:28;120.33;;;82.70;;
14599;SDS011;7386;45.586;12.854;2022-12-24T10:00:59;118.80;;;82.17;;
14599;SDS011;7386;45.586;12.854;2022-12-24T10:03:29;128.20;;;83.20;;
14599;SDS011;7386;45.586;12.854;2022-12-24T10:06:01;124.00;;;82.57;;
14599;SDS011;7386;45.586;12.854;2022-12-24T10:08:34;132.27;;;85.83;;
14599;SDS011;7386;45.586;12.854;2022-12-24T10:11:06;125.13;;;85.53;;
14599;SDS011;7386;45.586;12.854;2022-12-24T10:13:42;134.67;;;91.80;;
14599;SDS011;7386;45.586;12.854;2022-12-24T10:16:15;134.63;;;86.80;;
14599;SDS011;7386;45.586;12.854;2022-12-24T10:18:49;138.13;;;96.27;;
14599;SDS011;7386;45.586;12.854;2022-12-24T10:21:20;139.40;;;94.90;;
14599;SDS011;7386;45.586;12.854;2022-12-24T10:23:52;135.63;;;91.07;;
14599;SDS011;7386;45.586;12.854;2022-12-24T10:26:22;136.30;;;90.80;;
14599;SDS011;7386;45.586;12.854;2022-12-24T10:28:55;142.97;;;97.80;;
14599;SDS011;7386;45.586;12.854;2022-12-24T10:31:25;137.07;;;91.90;;
14599;SDS011;7386;45.586;12.854;2022-12-24T10:33:56;140.10;;;95.10;;
14599;SDS011;7386;45.586;12.854;2022-12-24T10:36:27;157.37;;;102.83;;
14599;SDS011;7386;45.586;12.854;2022-12-24T10:38:56;150.27;;;100.03;;
14599;SDS011;7386;45.586;12.854;2022-12-24T10:41:25;158.87;;;104.50;;
14599;SDS011;7386;45.586;12.854;2022-12-24T10:43:55;145.57;;;96.70;;
14599;SDS011;7386;45.586;12.854;2022-12-24T10:46:26;139.67;;;96.27;;
14599;SDS011;7386;45.586;12.854;2022-12-24T10:48:59;147.87;;;99.93;;
14599;SDS011;7386;45.586;12.854;2022-12-24T10:51:29;153.23;;;103.13;;
14599;SDS011;7386;45.586;12.854;2022-12-24T10:54:04;160.80;;;108.57;;
14599;SDS011;7386;45.586;12.854;2022-12-24T10:56:37;169.30;;;110.87;;
14599;SDS011;7386;45.586;12.854;2022-12-24T10:59:08;167.10;;;108.97;;
14599;SDS011;7386;45.586;12.854;2022-12-24T11:01:49;162.70;;;109.17;;
14599;SDS011;7386;45.586;12.854;2022-12-24T11:04:20;160.50;;;110.13;;
14599;SDS011;7386;45.586;12.854;2022-12-24T11:06:52;155.10;;;104.33;;
14599;SDS011;7386;45.586;12.854;2022-12-24T11:09:22;164.03;;;107.67;;
14599;SDS011;7386;45.586;12.854;2022-12-24T11:11:51;153.63;;;104.40;;
14599;SDS011;7386;45.586;12.854;2022-12-24T11:14:19;168.93;;;111.63;;
14599;SDS011;7386;45.586;12.854;2022-12-24T11:16:49;154.27;;;105.97;;
14599;SDS011;7386;45.586;12.854;2022-12-24T11:19:21;172.40;;;115.30;;
14599;SDS011;7386;45.586;12.854;2022-12-24T11:21:57;172.43;;;112.70;;
14599;SDS011;7386;45.586;12.854;2022-12-24T11:24:26;165.63;;;111.50;;
14599;SDS011;7386;45.586;12.854;2022-12-24T11:27:20;170.77;;;113.63;;
14599;SDS011;7386;45.586;12.854;2022-12-24T11:29:47;175.13;;;116.93;;
14599;SDS011;7386;45.586;12.854;2022-12-24T11:32:16;152.80;;;101.43;;
14599;SDS011;7386;45.586;12.854;2022-12-24T11:34:46;164.93;;;113.77;;
14599;SDS011;7386;45.586;12.854;2022-12-24T11:37:15;167.27;;;109.77;;
14599;SDS011;7386;45.586;12.854;2022-12-24T11:39:45;164.17;;;112.07;;
14599;SDS011;7386;45.586;12.854;2022-12-24T11:42:29;163.03;;;110.63;;
14599;SDS011;7386;45.586;12.854;2022-12-24T11:44:59;180.63;;;119.33;;
14599;SDS011;7386;45.586;12.854;2022-12-24T11:47:30;185.23;;;123.93;;
14599;SDS011;7386;45.586;12.854;2022-12-24T11:52:45;189.13;;;122.03;;
14599;SDS011;7386;45.586;12.854;2022-12-24T11:55:16;191.13;;;127.00;;
14599;SDS011;7386;45.586;12.854;2022-12-24T11:57:49;195.33;;;126.93;;
14599;SDS011;7386;45.586;12.854;2022-12-24T12:00:19;195.53;;;129.60;;
14599;SDS011;7386;45.586;12.854;2022-12-24T12:02:48;195.50;;;128.37;;
14599;SDS011;7386;45.586;12.854;2022-12-24T12:05:18;198.40;;;130.23;;
14599;SDS011;7386;45.586;12.854;2022-12-24T12:07:51;200.57;;;129.80;;
14599;SDS011;7386;45.586;12.854;2022-12-24T12:10:21;202.43;;;130.80;;
14599;SDS011;7386;45.586;12.854;2022-12-24T12:12:53;202.80;;;132.23;;
14599;SDS011;7386;45.586;12.854;2022-12-24T12:15:24;198.70;;;132.37;;
14599;SDS011;7386;45.586;12.854;2022-12-24T12:17:53;199.47;;;131.40;;
14599;SDS011;7386;45.586;12.854;2022-12-24T12:20:24;205.00;;;135.50;;
14599;SDS011;7386;45.586;12.854;2022-12-24T12:22:56;211.37;;;134.60;;
14599;SDS011;7386;45.586;12.854;2022-12-24T12:25:26;202.57;;;133.93;;
14599;SDS011;7386;45.586;12.854;2022-12-24T12:27:58;210.30;;;136.03;;
14599;SDS011;7386;45.586;12.854;2022-12-24T12:30:27;209.80;;;135.50;;
14599;SDS011;7386;45.586;12.854;2022-12-24T12:32:57;203.23;;;135.37;;
14599;SDS011;7386;45.586;12.854;2022-12-24T12:35:28;193.23;;;128.77;;
14599;SDS011;7386;45.586;12.854;2022-12-24T12:37:59;164.50;;;111.50;;
14599;SDS011;7386;45.586;12.854;2022-12-24T12:40:31;191.70;;;128.93;;
14599;SDS011;7386;45.586;12.854;2022-12-24T12:43:01;201.17;;;130.87;;
14599;SDS011;7386;45.586;12.854;2022-12-24T12:45:41;188.07;;;127.10;;
14599;SDS011;7386;45.586;12.854;2022-12-24T12:48:14;188.73;;;125.53;;
14599;SDS011;7386;45.586;12.854;2022-12-24T12:50:47;192.13;;;128.53;;
14599;SDS011;7386;45.586;12.854;2022-12-24T12:53:28;204.37;;;136.43;;
14599;SDS011;7386;45.586;12.854;2022-12-24T12:56:00;206.03;;;136.37;;
14599;SDS011;7386;45.586;12.854;2022-12-24T12:58:30;171.93;;;116.63;;
14599;SDS011;7386;45.586;12.854;2022-12-24T13:01:02;175.27;;;119.83;;
14599;SDS011;7386;45.586;12.854;2022-12-24T13:03:40;196.50;;;128.67;;
14599;SDS011;7386;45.586;12.854;2022-12-24T13:09:06;186.60;;;123.10;;
14599;SDS011;7386;45.586;12.854;2022-12-24T13:11:41;203.83;;;135.03;;
14599;SDS011;7386;45.586;12.854;2022-12-24T13:14:30;209.23;;;137.77;;
14599;SDS011;7386;45.586;12.854;2022-12-24T13:22:34;225.40;;;144.87;;
14599;SDS011;7386;45.586;12.854;2022-12-24T13:25:05;219.23;;;143.67;;
14599;SDS011;7386;45.586;12.854;2022-12-24T13:27:33;228.77;;;146.93;;
14599;SDS011;7386;45.586;12.854;2022-12-24T13:30:03;224.43;;;143.27;;
14599;SDS011;7386;45.586;12.854;2022-12-24T13:38:30;217.37;;;143.33;;
14599;SDS011;7386;45.586;12.854;2022-12-24T13:46:51;215.73;;;146.07;;
14599;SDS011;7386;45.586;12.854;2022-12-24T13:49:24;226.93;;;150.00;;
14599;SDS011;7386;45.586;12.854;2022-12-24T13:54:59;229.07;;;148.60;;
14599;SDS011;7386;45.586;12.854;2022-12-24T13:57:30;230.37;;;149.33;;
14599;SDS011;7386;45.586;12.854;2022-12-24T14:00:00;232.87;;;151.23;;
14599;SDS011;7386;45.586;12.854;2022-12-24T14:02:31;235.40;;;154.43;;
14599;SDS011;7386;45.586;12.854;2022-12-24T14:05:02;234.00;;;154.37;;
14599;SDS011;7386;45.586;12.854;2022-12-24T14:07:34;236.60;;;153.53;;
14599;SDS011;7386;45.586;12.854;2022-12-24T14:10:04;232.03;;;152.70;;
14599;SDS011;7386;45.586;12.854;2022-12-24T14:12:46;243.97;;;157.77;;
14599;SDS011;7386;45.586;12.854;2022-12-24T14:18:03;251.97;;;162.43;;
14599;SDS011;7386;45.586;12.854;2022-12-24T14:20:32;245.60;;;158.93;;
14599;SDS011;7386;45.586;12.854;2022-12-24T14:23:00;257.73;;;166.33;;
14599;SDS011;7386;45.586;12.854;2022-12-24T14:25:30;252.37;;;162.33;;
14599;SDS011;7386;45.586;12.854;2022-12-24T14:27:59;250.43;;;162.07;;
14599;SDS011;7386;45.586;12.854;2022-12-24T14:30:30;257.87;;;167.47;;
14599;SDS011;7386;45.586;12.854;2022-12-24T14:32:59;259.53;;;163.50;;
14599;SDS011;7386;45.586;12.854;2022-12-24T14:35:29;252.50;;;163.87;;
14599;SDS011;7386;45.586;12.854;2022-12-24T14:37:59;265.23;;;167.33;;
14599;SDS011;7386;45.586;12.854;2022-12-24T14:40:29;263.47;;;173.10;;
14599;SDS011;7386;45.586;12.854;2022-12-24T14:43:00;265.67;;;170.97;;
14599;SDS011;7386;45.586;12.854;2022-12-24T14:45:31;259.13;;;165.93;;
14599;SDS011;7386;45.586;12.854;2022-12-24T14:48:03;262.13;;;167.53;;
14599;SDS011;7386;45.586;12.854;2022-12-24T14:50:42;239.83;;;158.33;;
14599;SDS011;7386;45.586;12.854;2022-12-24T14:53:16;253.40;;;165.23;;
14599;SDS011;7386;45.586;12.854;2022-12-24T14:55:47;267.63;;;177.17;;
14599;SDS011;7386;45.586;12.854;2022-12-24T14:58:20;267.13;;;173.63;;